createdAt,value
2023-04-13T00:01:45.948Z,99313.78
2023-04-13T00:03:48.060Z,99316.19
2023-04-13T00:05:53.493Z,99318.88
2023-04-13T00:07:55.931Z,99325.47
2023-04-13T00:09:57.946Z,99328.22
2023-04-13T00:11:59.912Z,99340.19
2023-04-13T00:14:01.956Z,99345.31
2023-04-13T00:16:06.003Z,99345.31
2023-04-13T00:18:09.087Z,99338.53
2023-04-13T00:20:13.476Z,99345.34
2023-04-13T00:22:15.596Z,99341.09
2023-04-13T00:24:18.228Z,99352.19
2023-04-13T00:26:22.177Z,99350.41
2023-04-13T00:28:24.499Z,99370.00
2023-04-13T00:30:26.555Z,99367.44
2023-04-13T00:32:28.627Z,99371.75
2023-04-13T00:34:30.839Z,99365.03
2023-04-13T00:36:33.385Z,99371.88
2023-04-13T00:38:35.717Z,99388.97
2023-04-13T00:40:37.987Z,99379.53
2023-04-13T00:42:40.102Z,99376.06
2023-04-13T00:44:42.175Z,99385.25
2023-04-13T00:46:46.648Z,99389.53
2023-04-13T00:48:49.398Z,99396.41
2023-04-13T00:50:51.527Z,99396.47
2023-04-13T00:52:53.514Z,99388.00
2023-04-13T00:54:58.568Z,99388.78
2023-04-13T00:57:01.917Z,99397.44
2023-04-13T00:59:04.038Z,99396.47
2023-04-13T01:01:06.346Z,99386.28
2023-04-13T01:03:09.904Z,99395.69
2023-04-13T01:05:15.435Z,99392.28
2023-04-13T01:07:24.649Z,99394.69
2023-04-13T01:09:33.293Z,99401.78
2023-04-13T01:11:41.633Z,99403.47
2023-04-13T01:13:52.928Z,99408.59
2023-04-13T01:16:04.000Z,99398.28
2023-04-13T01:18:10.182Z,99410.88
2023-04-13T01:20:15.926Z,99413.53
2023-04-13T01:22:22.653Z,99421.09
2023-04-13T01:24:32.685Z,99411.84
2023-04-13T01:26:45.939Z,99417.03
2023-04-13T01:28:48.689Z,99420.50
2023-04-13T01:30:53.886Z,99421.31
2023-04-13T01:32:56.901Z,99432.28
2023-04-13T01:34:58.825Z,99430.56
2023-04-13T01:37:04.793Z,99435.69
2023-04-13T01:39:06.724Z,99449.53
2023-04-13T01:41:08.822Z,99436.78
2023-04-13T01:43:11.343Z,99445.25
2023-04-13T01:45:17.354Z,99460.50
2023-04-13T01:47:23.964Z,99434.22
2023-04-13T01:49:26.883Z,99446.19
2023-04-13T01:51:32.468Z,99447.81
2023-04-13T01:53:42.727Z,99445.25
2023-04-13T01:55:45.713Z,99461.56
2023-04-13T01:57:50.230Z,99451.25
2023-04-13T01:59:51.950Z,99474.28
2023-04-13T02:01:54.836Z,99466.69
2023-04-13T02:03:57.188Z,99470.97
2023-04-13T02:05:59.349Z,99475.25
2023-04-13T02:08:03.811Z,99471.91
2023-04-13T02:10:08.653Z,99501.84
2023-04-13T02:12:10.961Z,99493.94
2023-04-13T02:14:13.033Z,99489.56
2023-04-13T02:16:16.110Z,99492.22
2023-04-13T02:18:18.678Z,99483.78
2023-04-13T02:20:23.206Z,99493.97
2023-04-13T02:22:25.364Z,99507.47
2023-04-13T02:24:27.300Z,99516.25
2023-04-13T02:26:29.279Z,99498.13
2023-04-13T02:28:31.339Z,99505.91
2023-04-13T02:30:33.358Z,99523.66
2023-04-13T02:32:39.756Z,99521.06
2023-04-13T02:34:42.864Z,99522.53
2023-04-13T02:36:45.474Z,99527.75
2023-04-13T02:38:47.470Z,99517.53
2023-04-13T02:40:53.852Z,99530.44
2023-04-13T02:42:57.481Z,99522.66
2023-04-13T02:44:59.364Z,99551.59
2023-04-13T02:47:01.652Z,99528.66
2023-04-13T02:49:03.876Z,99537.00
2023-04-13T02:51:06.678Z,99535.31
2023-04-13T02:53:08.621Z,99533.72
2023-04-13T02:55:11.318Z,99543.16
2023-04-13T02:57:14.834Z,99549.00
2023-04-13T02:59:16.771Z,99551.56
2023-04-13T03:01:18.983Z,99542.28
2023-04-13T03:03:20.982Z,99549.16
2023-04-13T03:05:23.146Z,99575.69
2023-04-13T03:07:26.052Z,99558.56
2023-04-13T03:09:27.931Z,99552.69
2023-04-13T03:11:29.847Z,99562.81
2023-04-13T03:13:32.134Z,99580.75
2023-04-13T03:15:34.088Z,99571.28
2023-04-13T03:17:36.164Z,99575.63
2023-04-13T03:19:38.136Z,99581.69
2023-04-13T03:21:41.602Z,99585.06
2023-04-13T03:23:44.279Z,99587.53
2023-04-13T03:25:46.375Z,99574.81
2023-04-13T03:27:48.337Z,99595.31
2023-04-13T03:29:50.567Z,99588.50
2023-04-13T03:31:52.548Z,99585.78
2023-04-13T03:33:54.556Z,99590.09
2023-04-13T03:35:56.557Z,99600.47
2023-04-13T03:37:58.419Z,99590.16
2023-04-13T03:40:00.600Z,99602.91
2023-04-13T03:42:02.851Z,99606.28
2023-04-13T03:44:07.885Z,99602.03
2023-04-13T03:46:09.890Z,99626.25
2023-04-13T03:48:11.800Z,99632.66
2023-04-13T03:50:13.831Z,99617.34
2023-04-13T03:52:16.380Z,99622.59
2023-04-13T03:54:18.341Z,99631.09
2023-04-13T03:56:21.508Z,99630.19
2023-04-13T03:58:23.557Z,99634.34
2023-04-13T04:00:25.462Z,99631.78
2023-04-13T04:02:27.834Z,99643.09
2023-04-13T04:04:30.115Z,99653.03
2023-04-13T04:06:32.022Z,99656.44
2023-04-13T04:08:33.957Z,99651.25
2023-04-13T04:10:36.018Z,99655.69
2023-04-13T04:12:37.997Z,99659.16
2023-04-13T04:14:40.086Z,99659.19
2023-04-13T04:16:42.144Z,99660.94
2023-04-13T04:18:44.556Z,99658.31
2023-04-13T04:20:46.539Z,99662.72
2023-04-13T04:22:49.981Z,99670.91
2023-04-13T04:24:52.759Z,99670.19
2023-04-13T04:26:55.829Z,99678.47
2023-04-13T04:29:07.938Z,99674.34
2023-04-13T04:31:13.177Z,99675.84
2023-04-13T04:33:15.609Z,99680.28
2023-04-13T04:35:19.480Z,99676.81
2023-04-13T04:37:21.557Z,99672.59
2023-04-13T04:39:24.167Z,99684.56
2023-04-13T04:41:26.168Z,99689.44
2023-04-13T04:43:30.533Z,99684.22
2023-04-13T04:45:33.353Z,99696.94
2023-04-13T04:47:43.837Z,99704.81
2023-04-13T04:49:46.184Z,99689.69
2023-04-13T04:51:49.072Z,99699.44
2023-04-13T04:53:52.647Z,99698.72
2023-04-13T04:55:54.693Z,99706.34
2023-04-13T04:57:56.695Z,99709.66
2023-04-13T05:00:01.523Z,99711.34
2023-04-13T05:02:03.431Z,99719.84
2023-04-13T05:04:05.672Z,99725.69
2023-04-13T05:06:08.323Z,99728.53
2023-04-13T05:08:11.918Z,99738.16
2023-04-13T05:10:13.864Z,99735.59
2023-04-13T05:12:16.831Z,99754.25
2023-04-13T05:14:18.757Z,99731.19
2023-04-13T05:16:20.726Z,99738.53
2023-04-13T05:18:22.654Z,99737.13
2023-04-13T05:20:24.566Z,99738.09
2023-04-13T05:22:26.688Z,99747.22
2023-04-13T05:24:28.847Z,99744.75
2023-04-13T05:26:31.117Z,99751.53
2023-04-13T05:28:34.455Z,99757.41
2023-04-13T05:30:37.299Z,99742.16
2023-04-13T05:32:39.271Z,99751.47
2023-04-13T05:34:41.488Z,99764.97
2023-04-13T05:36:43.419Z,99747.78
2023-04-13T05:38:45.275Z,99755.81
2023-04-13T05:40:47.230Z,99767.72
2023-04-13T05:42:49.255Z,99767.56
2023-04-13T05:44:51.516Z,99764.16
2023-04-13T05:46:53.701Z,99759.00
2023-04-13T05:48:55.630Z,99772.00
2023-04-13T05:50:59.047Z,99765.00
2023-04-13T05:53:01.747Z,99770.91
2023-04-13T05:55:04.214Z,99786.44
2023-04-13T05:57:06.357Z,99783.91
2023-04-13T05:59:08.964Z,99782.28
2023-04-13T06:01:12.316Z,99782.19
2023-04-13T06:03:17.344Z,99789.09
2023-04-13T06:05:20.017Z,99787.72
2023-04-13T06:07:23.417Z,99795.81
2023-04-13T06:09:25.435Z,99786.28
2023-04-13T06:11:27.888Z,99789.09
2023-04-13T06:13:31.892Z,99811.41
2023-04-13T06:15:36.811Z,99801.84
2023-04-13T06:17:38.750Z,99814.44
2023-04-13T06:19:40.969Z,99818.88
2023-04-13T06:21:43.687Z,99817.38
2023-04-13T06:23:46.007Z,99806.00
2023-04-13T06:25:48.114Z,99819.63
2023-04-13T06:27:50.474Z,99815.50
2023-04-13T06:29:52.669Z,99818.03
2023-04-13T06:31:54.821Z,99825.13
2023-04-13T06:33:57.004Z,99822.69
2023-04-13T06:35:58.956Z,99838.13
2023-04-13T06:38:02.751Z,99828.63
2023-04-13T06:40:09.338Z,99831.25
2023-04-13T06:42:11.329Z,99837.91
2023-04-13T06:44:13.269Z,99840.59
2023-04-13T06:46:15.931Z,99848.31
2023-04-13T06:48:19.195Z,99844.22
2023-04-13T06:50:21.169Z,99848.09
2023-04-13T06:52:23.239Z,99846.78
2023-04-13T06:54:28.207Z,99845.13
2023-04-13T06:56:30.198Z,99864.03
2023-04-13T06:58:32.275Z,99873.38
2023-04-13T07:00:34.481Z,99862.28
2023-04-13T07:02:36.733Z,99868.13
2023-04-13T07:04:39.032Z,99871.66
2023-04-13T07:06:41.007Z,99885.38
2023-04-13T07:08:42.995Z,99882.66
2023-04-13T07:10:47.975Z,99873.59
2023-04-13T07:12:49.971Z,99874.31
2023-04-13T07:14:51.918Z,99899.50
2023-04-13T07:16:53.819Z,99892.81
2023-04-13T07:18:56.077Z,99902.44
2023-04-13T07:20:58.072Z,99886.25
2023-04-13T07:23:00.020Z,99902.41
2023-04-13T07:25:02.097Z,99899.84
2023-04-13T07:27:04.107Z,99910.66
2023-04-13T07:29:13.473Z,99901.38
2023-04-13T07:31:16.421Z,99903.06
2023-04-13T07:33:21.469Z,99912.25
2023-04-13T07:35:23.480Z,99901.44
2023-04-13T07:37:25.639Z,99918.59
2023-04-13T07:39:28.107Z,99912.94
2023-04-13T07:41:30.908Z,99908.75
2023-04-13T07:43:32.929Z,99915.34
2023-04-13T07:45:35.058Z,99917.31
2023-04-13T07:47:37.602Z,99915.47
2023-04-13T07:49:39.878Z,99908.56
2023-04-13T07:51:42.067Z,99936.00
2023-04-13T07:53:47.771Z,99919.91
2023-04-13T07:55:51.373Z,99939.50
2023-04-13T07:57:53.372Z,99938.72
2023-04-13T07:59:55.362Z,99937.84
2023-04-13T08:01:58.175Z,99933.75
2023-04-13T08:04:00.276Z,99934.81
2023-04-13T08:06:06.448Z,99923.81
2023-04-13T08:08:08.623Z,99938.53
2023-04-13T08:10:10.883Z,99951.03
2023-04-13T08:12:12.972Z,99937.53
2023-04-13T08:14:15.740Z,99932.56
2023-04-13T08:16:17.855Z,99930.84
2023-04-13T08:18:19.806Z,99942.00
2023-04-13T08:20:22.106Z,99941.28
2023-04-13T08:22:25.673Z,99937.97
2023-04-13T08:24:30.128Z,99940.72
2023-04-13T08:26:33.173Z,99944.19
2023-04-13T08:28:35.582Z,99953.47
2023-04-13T08:30:38.160Z,99950.06
2023-04-13T08:32:40.182Z,99941.78
2023-04-13T08:34:42.646Z,99944.56
2023-04-13T08:36:46.233Z,99952.34
2023-04-13T08:38:48.261Z,99958.59
2023-04-13T08:40:50.760Z,99964.19
2023-04-13T08:42:55.089Z,99965.03
2023-04-13T08:44:59.908Z,99971.13
2023-04-13T08:47:02.091Z,99972.88
2023-04-13T08:49:04.518Z,99977.88
2023-04-13T08:51:07.603Z,99980.72
2023-04-13T08:53:09.748Z,99976.34
2023-04-13T08:55:11.774Z,99969.44
2023-04-13T08:57:15.812Z,99990.91
2023-04-13T08:59:19.510Z,99967.94
2023-04-13T09:01:23.113Z,99973.88
2023-04-13T09:03:26.684Z,99976.47
2023-04-13T09:05:29.878Z,99978.50
2023-04-13T09:07:34.944Z,99994.00
2023-04-13T09:09:39.206Z,99972.47
2023-04-13T09:11:43.176Z,99976.91
2023-04-13T09:13:52.193Z,99994.25
2023-04-13T09:15:54.195Z,99998.47
2023-04-13T09:17:56.493Z,99996.69
2023-04-13T09:20:13.957Z,99993.41
2023-04-13T09:22:16.342Z,100002.97
2023-04-13T09:24:20.809Z,99998.63
2023-04-13T09:26:23.211Z,99999.66
2023-04-13T09:28:25.224Z,99987.78
2023-04-13T09:30:28.621Z,100011.88
2023-04-13T09:32:30.792Z,100006.72
2023-04-13T09:34:32.869Z,100000.63
2023-04-13T09:36:37.786Z,100007.38
2023-04-13T09:38:50.815Z,100016.25
2023-04-13T09:40:54.554Z,100003.44
2023-04-13T09:43:00.938Z,100006.94
2023-04-13T09:45:03.078Z,100010.41
2023-04-13T09:47:07.202Z,100002.66
2023-04-13T09:49:09.498Z,100008.78
2023-04-13T09:51:12.226Z,100000.19
2023-04-13T09:53:14.439Z,99992.50
2023-04-13T09:55:18.102Z,100007.25
2023-04-13T09:57:25.963Z,100026.78
2023-04-13T09:59:28.042Z,100008.22
2023-04-13T10:01:30.188Z,100013.31
2023-04-13T10:03:34.777Z,100011.63
2023-04-13T10:05:54.690Z,100035.59
2023-04-13T10:08:00.152Z,100014.31
2023-04-13T10:10:02.095Z,100015.22
2023-04-13T10:12:06.945Z,100029.91
2023-04-13T10:14:22.017Z,100020.59
2023-04-13T10:16:33.140Z,100032.56
2023-04-13T10:18:52.833Z,100027.25
2023-04-13T10:20:58.503Z,100023.91
2023-04-13T10:23:01.151Z,100015.31
2023-04-13T10:25:05.186Z,100028.44
2023-04-13T10:27:18.566Z,100013.03
2023-04-13T10:29:29.406Z,100026.00
2023-04-13T10:31:39.328Z,100017.50
2023-04-13T10:33:50.042Z,100026.13
2023-04-13T10:35:58.102Z,100036.47
2023-04-13T10:38:00.260Z,100035.63
2023-04-13T10:40:09.247Z,100032.16
2023-04-13T10:42:13.110Z,100017.59
2023-04-13T10:44:15.279Z,100021.06
2023-04-13T10:46:17.349Z,100029.63
2023-04-13T10:48:21.938Z,100025.38
2023-04-13T10:50:25.194Z,100029.69
2023-04-13T10:52:27.373Z,100041.75
2023-04-13T10:54:30.568Z,100040.03
2023-04-13T10:56:32.738Z,100036.56
2023-04-13T10:58:34.762Z,100034.84
2023-04-13T11:00:45.727Z,100036.56
2023-04-13T11:02:51.542Z,100038.25
2023-04-13T11:04:53.837Z,100033.97
2023-04-13T11:06:56.477Z,100035.69
2023-04-13T11:09:07.643Z,100025.38
2023-04-13T11:11:14.836Z,100028.81
2023-04-13T11:13:17.267Z,100032.28
2023-04-13T11:15:21.030Z,100027.09
2023-04-13T11:17:23.389Z,100034.88
2023-04-13T11:19:26.266Z,100028.81
2023-04-13T11:21:28.410Z,100041.75
2023-04-13T11:23:34.866Z,100040.00
2023-04-13T11:25:36.972Z,100033.16
2023-04-13T11:27:39.086Z,100026.22
2023-04-13T11:29:41.630Z,100038.31
2023-04-13T11:31:43.866Z,100031.41
2023-04-13T11:33:49.746Z,100033.13
2023-04-13T11:35:52.012Z,100040.03
2023-04-13T11:37:56.273Z,100048.66
2023-04-13T11:39:59.770Z,100027.94
2023-04-13T11:42:07.228Z,100024.47
2023-04-13T11:44:12.240Z,100035.66
2023-04-13T11:46:16.412Z,100044.34
2023-04-13T11:48:19.396Z,100043.50
2023-04-13T11:50:22.650Z,100029.69
2023-04-13T11:52:26.357Z,100034.88
2023-04-13T11:54:30.626Z,100027.09
2023-04-13T11:56:32.974Z,100035.72
2023-04-13T11:58:36.170Z,100018.41
2023-04-13T12:00:41.468Z,100034.69
2023-04-13T12:03:00.244Z,100025.06
2023-04-13T12:05:05.958Z,100029.41
2023-04-13T12:07:14.107Z,100025.94
2023-04-13T12:09:19.273Z,100043.97
2023-04-13T12:11:41.127Z,100051.00
2023-04-13T12:13:52.309Z,100039.91
2023-04-13T12:16:15.788Z,100043.38
2023-04-13T12:18:25.163Z,100041.75
2023-04-13T12:20:41.839Z,100045.19
2023-04-13T12:22:55.917Z,100042.59
2023-04-13T12:25:15.242Z,100047.78
2023-04-13T12:27:19.187Z,100053.81
2023-04-13T12:29:22.768Z,100043.50
2023-04-13T12:31:27.881Z,100045.19
2023-04-13T12:33:30.650Z,100039.16
2023-04-13T12:35:32.821Z,100037.44
2023-04-13T12:37:35.044Z,100040.03
2023-04-13T12:39:37.493Z,100039.19
2023-04-13T12:41:39.559Z,100033.13
2023-04-13T12:43:41.625Z,100076.22
2023-04-13T12:45:43.866Z,100064.16
2023-04-13T12:47:46.828Z,100065.00
2023-04-13T12:49:49.363Z,100052.94
2023-04-13T12:51:52.337Z,100060.69
2023-04-13T12:53:54.481Z,100053.78
2023-04-13T12:55:57.554Z,100050.38
2023-04-13T12:57:59.990Z,100064.16
2023-04-13T13:00:02.054Z,100051.25
2023-04-13T13:02:04.136Z,100077.91
2023-04-13T13:04:12.412Z,100065.03
2023-04-13T13:06:14.423Z,100059.84
2023-04-13T13:08:16.666Z,100095.13
2023-04-13T13:10:29.118Z,100084.78
2023-04-13T13:12:33.201Z,100061.56
2023-04-13T13:14:35.640Z,100060.72
2023-04-13T13:16:37.756Z,100074.44
2023-04-13T13:18:50.495Z,100055.50
2023-04-13T13:21:01.904Z,100059.81
2023-04-13T13:23:03.946Z,100048.59
2023-04-13T13:25:07.343Z,100051.94
2023-04-13T13:27:37.532Z,100032.84
2023-04-13T13:29:33.654Z,100033.69
2023-04-13T13:31:36.698Z,100034.47
2023-04-13T13:33:38.785Z,100040.50
2023-04-13T13:35:40.825Z,100034.28
2023-04-13T13:37:45.230Z,100044.63
2023-04-13T13:39:47.426Z,100040.25
2023-04-13T13:41:50.159Z,100036.69
2023-04-13T13:43:52.538Z,100026.13
2023-04-13T13:45:54.659Z,100028.66
2023-04-13T13:47:58.451Z,100026.97
2023-04-13T13:50:00.625Z,100039.09
2023-04-13T13:52:02.662Z,100047.94
2023-04-13T13:54:04.741Z,100027.78
2023-04-13T13:56:07.076Z,100025.69
2023-04-13T13:58:09.140Z,100023.69
2023-04-13T14:00:21.176Z,100032.00
2023-04-13T14:02:23.425Z,100023.22
2023-04-13T14:04:25.881Z,100044.00
2023-04-13T14:06:28.821Z,100030.50
2023-04-13T14:08:30.846Z,100026.97
2023-04-13T14:10:32.957Z,100039.81
2023-04-13T14:12:38.333Z,100025.00
2023-04-13T14:14:40.354Z,100036.25
2023-04-13T14:16:42.457Z,100056.91
2023-04-13T14:18:44.536Z,100030.91
2023-04-13T14:20:47.521Z,100022.44
2023-04-13T14:22:49.760Z,100022.25
2023-04-13T14:24:52.172Z,100032.44
2023-04-13T14:26:54.520Z,100027.88
2023-04-13T14:28:56.846Z,100025.63
2023-04-13T14:30:59.142Z,100029.00
2023-04-13T14:33:01.737Z,100034.53
2023-04-13T14:35:04.036Z,100037.81
2023-04-13T14:37:06.768Z,100050.59
2023-04-13T14:39:08.848Z,100063.50
2023-04-13T14:41:10.873Z,100049.78
2023-04-13T14:43:12.946Z,100065.94
2023-04-13T14:45:15.947Z,100065.28
2023-04-13T14:47:18.609Z,100088.31
2023-04-13T14:49:20.657Z,100074.56
2023-04-13T14:51:22.703Z,100099.00
2023-04-13T14:53:24.858Z,100088.97
2023-04-13T14:55:26.845Z,100081.31
2023-04-13T14:57:29.341Z,100086.44
2023-04-13T14:59:31.799Z,100079.63
2023-04-13T15:01:34.197Z,100080.41
2023-04-13T15:03:36.865Z,100085.72
2023-04-13T15:05:40.480Z,100090.94
2023-04-13T15:07:44.868Z,100097.16
2023-04-13T15:09:47.462Z,100097.16
2023-04-13T15:11:49.721Z,100109.25
2023-04-13T15:13:51.830Z,100106.72
2023-04-13T15:15:55.141Z,100118.66
2023-04-13T15:17:58.272Z,100110.69
2023-04-13T15:20:01.795Z,100129.56
2023-04-13T15:22:03.736Z,100118.28
2023-04-13T15:24:05.911Z,100108.84
2023-04-13T15:26:07.864Z,100127.84
2023-04-13T15:28:10.631Z,100118.50
2023-04-13T15:30:12.917Z,100110.50
2023-04-13T15:32:14.857Z,100119.84
2023-04-13T15:34:16.840Z,100117.28
2023-04-13T15:36:19.230Z,100112.09
2023-04-13T15:38:21.053Z,100121.69
2023-04-13T15:40:26.158Z,100123.59
2023-04-13T15:42:31.072Z,100112.16
2023-04-13T15:44:32.977Z,100100.91
2023-04-13T15:46:35.113Z,100111.97
2023-04-13T15:48:37.102Z,100119.88
2023-04-13T15:50:39.081Z,100117.22
2023-04-13T15:52:41.238Z,100100.81
2023-04-13T15:54:43.191Z,100102.81
2023-04-13T15:56:45.073Z,100117.19
2023-04-13T15:58:47.092Z,100113.16
2023-04-13T16:00:58.067Z,100106.13
2023-04-13T16:03:00.168Z,100112.16
2023-04-13T16:05:02.733Z,100132.22
2023-04-13T16:07:12.886Z,100147.84
2023-04-13T16:09:15.398Z,100149.72
2023-04-13T16:11:20.762Z,100136.78
2023-04-13T16:13:22.750Z,100117.91
2023-04-13T16:15:25.159Z,100136.22
2023-04-13T16:17:31.392Z,100124.28
2023-04-13T16:19:34.180Z,100113.97
2023-04-13T16:21:36.138Z,100132.00
2023-04-13T16:23:41.283Z,100106.09
2023-04-13T16:25:43.250Z,100103.50
2023-04-13T16:27:48.196Z,100101.66
2023-04-13T16:29:50.309Z,100116.19
2023-04-13T16:31:52.376Z,100110.16
2023-04-13T16:33:57.953Z,100129.84
2023-04-13T16:36:02.252Z,100107.63
2023-04-13T16:38:05.566Z,100118.75
2023-04-13T16:40:10.671Z,100120.50
2023-04-13T16:42:12.611Z,100117.78
2023-04-13T16:44:14.561Z,100121.34
2023-04-13T16:46:17.204Z,100129.09
2023-04-13T16:48:20.709Z,100129.84
2023-04-13T16:50:22.649Z,100125.63
2023-04-13T16:52:24.908Z,100137.66
2023-04-13T16:54:27.696Z,100129.97
2023-04-13T16:56:30.049Z,100143.06
2023-04-13T16:58:32.077Z,100149.19
2023-04-13T17:00:35.447Z,100143.84
2023-04-13T17:02:40.653Z,100146.59
2023-04-13T17:04:43.753Z,100161.22
2023-04-13T17:06:47.744Z,100148.38
2023-04-13T17:08:50.202Z,100160.41
2023-04-13T17:10:52.734Z,100160.44
2023-04-13T17:12:54.690Z,100178.59
2023-04-13T17:14:57.869Z,100172.56
2023-04-13T17:17:00.450Z,100166.59
2023-04-13T17:19:02.915Z,100172.59
2023-04-13T17:21:05.291Z,100182.13
2023-04-13T17:23:07.827Z,100178.69
2023-04-13T17:25:10.408Z,100187.31
2023-04-13T17:27:12.442Z,100201.13
2023-04-13T17:29:14.619Z,100179.56
2023-04-13T17:31:17.101Z,100181.28
2023-04-13T17:33:19.054Z,100176.09
2023-04-13T17:35:20.995Z,100172.66
2023-04-13T17:37:23.058Z,100183.00
2023-04-13T17:39:25.584Z,100181.31
2023-04-13T17:41:27.464Z,100188.19
2023-04-13T17:43:29.290Z,100193.38
2023-04-13T17:45:31.405Z,100193.34
2023-04-13T17:47:33.536Z,100196.81
2023-04-13T17:49:37.622Z,100194.22
2023-04-13T17:51:45.216Z,100202.84
2023-04-13T17:53:47.141Z,100208.88
2023-04-13T17:55:49.010Z,100198.53
2023-04-13T17:57:50.855Z,100204.56
2023-04-13T17:59:52.780Z,100212.34
2023-04-13T18:01:55.524Z,100207.13
2023-04-13T18:03:59.831Z,100201.97
2023-04-13T18:06:02.330Z,100211.44
2023-04-13T18:08:04.501Z,100219.16
2023-04-13T18:10:06.997Z,100230.31
2023-04-13T18:12:08.982Z,100237.22
2023-04-13T18:14:12.459Z,100230.31
2023-04-13T18:16:15.070Z,100240.63
2023-04-13T18:18:18.108Z,100233.75
2023-04-13T18:20:20.059Z,100241.50
2023-04-13T18:22:21.899Z,100251.81
2023-04-13T18:24:23.743Z,100245.75
2023-04-13T18:26:26.494Z,100252.69
2023-04-13T18:28:29.864Z,100254.41
2023-04-13T18:30:34.773Z,100259.56
2023-04-13T18:32:37.676Z,100262.06
2023-04-13T18:34:42.413Z,100266.34
2023-04-13T18:36:47.562Z,100272.34
2023-04-13T18:38:49.621Z,100279.19
2023-04-13T18:40:51.621Z,100284.28
2023-04-13T18:42:53.706Z,100286.03
2023-04-13T18:44:55.560Z,100293.69
2023-04-13T18:47:00.689Z,100297.88
2023-04-13T18:49:02.909Z,100300.13
2023-04-13T18:51:04.895Z,100310.28
2023-04-13T18:53:09.990Z,100310.91
2023-04-13T18:55:12.071Z,100310.19
2023-04-13T18:57:13.948Z,100303.94
2023-04-13T18:59:15.993Z,100317.56
2023-04-13T19:01:19.334Z,100320.22
2023-04-13T19:03:21.734Z,100316.63
2023-04-13T19:05:23.966Z,100315.81
2023-04-13T19:07:27.994Z,100324.53
2023-04-13T19:09:31.370Z,100321.88
2023-04-13T19:11:47.785Z,100321.09
2023-04-13T19:13:49.649Z,100334.84
2023-04-13T19:15:51.578Z,100334.56
2023-04-13T19:17:53.821Z,100332.69
2023-04-13T19:19:56.281Z,100325.53
2023-04-13T19:21:58.210Z,100328.09
2023-04-13T19:24:00.166Z,100331.97
2023-04-13T19:26:02.254Z,100326.72
2023-04-13T19:28:05.070Z,100332.75
2023-04-13T19:30:11.585Z,100328.56
2023-04-13T19:32:16.853Z,100331.97
2023-04-13T19:34:18.773Z,100337.03
2023-04-13T19:36:20.817Z,100330.19
2023-04-13T19:38:22.831Z,100339.75
2023-04-13T19:40:26.492Z,100337.13
2023-04-13T19:42:29.413Z,100339.66
2023-04-13T19:44:31.460Z,100347.31
2023-04-13T19:46:33.550Z,100346.13
2023-04-13T19:48:35.552Z,100350.56
2023-04-13T19:50:37.467Z,100346.41
2023-04-13T19:52:41.553Z,100354.09
2023-04-13T19:54:44.845Z,100355.75
2023-04-13T19:56:46.866Z,100358.50
2023-04-13T19:58:48.930Z,100358.47
2023-04-13T20:00:54.624Z,100364.94
2023-04-13T20:03:03.426Z,100366.66
2023-04-13T20:05:06.487Z,100376.78
2023-04-13T20:07:08.456Z,100379.59
2023-04-13T20:09:12.089Z,100384.16
2023-04-13T20:11:14.523Z,100375.94
2023-04-13T20:13:16.487Z,100369.78
2023-04-13T20:15:18.524Z,100367.16
2023-04-13T20:17:20.718Z,100371.16
2023-04-13T20:19:24.467Z,100377.28
2023-04-13T20:21:31.136Z,100370.28
2023-04-13T20:23:34.703Z,100368.50
2023-04-13T20:25:39.317Z,100376.91
2023-04-13T20:27:42.300Z,100371.97
2023-04-13T20:29:44.236Z,100366.78
2023-04-13T20:31:46.375Z,100377.09
2023-04-13T20:33:49.145Z,100368.50
2023-04-13T20:35:53.054Z,100368.59
2023-04-13T20:37:59.687Z,100381.34
2023-04-13T20:40:02.877Z,100371.78
2023-04-13T20:42:05.128Z,100368.50
2023-04-13T20:44:10.136Z,100378.03
2023-04-13T20:46:12.177Z,100371.94
2023-04-13T20:50:23.830Z,100379.81
2023-04-13T20:52:30.278Z,100379.59
2023-04-13T20:54:32.261Z,100388.91
2023-04-13T20:56:34.296Z,100388.66
2023-04-13T20:58:37.568Z,100389.75
2023-04-13T21:00:39.510Z,100392.66
2023-04-13T21:02:42.348Z,100386.13
2023-04-13T21:04:44.337Z,100390.06
2023-04-13T21:06:46.937Z,100391.59
2023-04-13T21:08:48.795Z,100384.81
2023-04-13T21:10:50.638Z,100390.81
2023-04-13T21:12:52.514Z,100382.13
2023-04-13T21:14:56.799Z,100388.31
2023-04-13T21:16:58.668Z,100388.38
2023-04-13T21:19:00.487Z,100380.47
2023-04-13T21:21:02.407Z,100383.25
2023-04-13T21:23:04.299Z,100378.94
2023-04-13T21:25:06.915Z,100383.84
2023-04-13T21:27:08.743Z,100386.16
2023-04-13T21:29:11.148Z,100386.22
2023-04-13T21:31:13.132Z,100380.97
2023-04-13T21:33:14.952Z,100381.22
2023-04-13T21:35:17.539Z,100379.50
2023-04-13T21:37:22.590Z,100384.50
2023-04-13T21:39:24.401Z,100380.03
2023-04-13T21:41:26.290Z,100379.44
2023-04-13T21:43:28.122Z,100384.78
2023-04-13T21:45:29.947Z,100387.59
2023-04-13T21:47:31.963Z,100384.47
2023-04-13T21:49:33.758Z,100391.25
2023-04-13T21:51:35.796Z,100379.25
2023-04-13T21:53:38.614Z,100375.81
2023-04-13T21:55:40.624Z,100385.13
2023-04-13T21:57:42.406Z,100373.28
2023-04-13T21:59:44.166Z,100370.72
2023-04-13T22:01:46.203Z,100370.69
2023-04-13T22:03:48.646Z,100377.63
2023-04-13T22:05:50.706Z,100382.81
2023-04-13T22:07:52.657Z,100371.56
2023-04-13T22:09:57.919Z,100382.66
2023-04-13T22:11:59.737Z,100385.97
2023-04-13T22:14:01.776Z,100380.94
2023-04-13T22:16:03.845Z,100380.13
2023-04-13T22:18:06.178Z,100386.84
2023-04-13T22:20:08.956Z,100379.28
2023-04-13T22:22:10.871Z,100383.41
2023-04-13T22:24:12.969Z,100377.53
2023-04-13T22:26:17.878Z,100379.19
2023-04-13T22:28:19.982Z,100376.63
2023-04-13T22:30:21.833Z,100381.63
2023-04-13T22:32:24.577Z,100383.97
2023-04-13T22:34:28.473Z,100378.22
2023-04-13T22:36:30.385Z,100379.72
2023-04-13T22:38:32.292Z,100375.88
2023-04-13T22:40:34.200Z,100380.28
2023-04-13T22:42:36.059Z,100380.47
2023-04-13T22:44:37.893Z,100380.53
2023-04-13T22:46:39.683Z,100378.88
2023-04-13T22:48:44.724Z,100376.19
2023-04-13T22:50:46.463Z,100371.72
2023-04-13T22:52:48.363Z,100365.56
2023-04-13T22:54:50.154Z,100373.47
2023-04-13T22:56:52.901Z,100376.59
2023-04-13T22:58:54.678Z,100376.81
2023-04-13T23:00:56.458Z,100374.75
2023-04-13T23:02:58.446Z,100366.31
2023-04-13T23:05:00.429Z,100363.88
2023-04-13T23:07:02.387Z,100366.25
2023-04-13T23:09:04.387Z,100365.53
2023-04-13T23:11:09.725Z,100375.97
2023-04-13T23:13:11.500Z,100369.00
2023-04-13T23:15:14.042Z,100367.19
2023-04-13T23:17:16.010Z,100362.16
2023-04-13T23:19:18.901Z,100361.22
2023-04-13T23:21:23.094Z,100365.50
2023-04-13T23:23:25.013Z,100370.69
2023-04-13T23:25:26.937Z,100369.00
2023-04-13T23:27:28.843Z,100366.34
2023-04-13T23:29:30.600Z,100367.25
2023-04-13T23:31:32.496Z,100369.53
2023-04-13T23:33:35.125Z,100365.38
2023-04-13T23:35:36.853Z,100365.97
2023-04-13T23:37:40.460Z,100365.97
2023-04-13T23:39:42.335Z,100364.41
2023-04-13T23:41:44.098Z,100366.41
2023-04-13T23:43:46.644Z,100364.63
2023-04-13T23:45:51.441Z,100364.72
2023-04-13T23:47:54.042Z,100369.84